Here is the Quick Look data you requested

The Data originates at the National Weather Service, and is made available here by the UAlbany Department of Atmospheric and Environmental Sciences

Surface Observations

KOXB 202353Z AUTO 22006KT 10SM CLR 32/26 A2987 RMK AO2 SLP114 T03220256 10350
 20317 51006=
KOXB 210053Z AUTO 00000KT 10SM CLR 30/26 A2987 RMK AO2 SLP114 T03000261=
KOXB 210153Z AUTO 20003KT 9SM CLR 28/26 A2988 RMK AO2 SLP118 T02830256=
KOXB 210253Z AUTO 18003KT 8SM CLR 28/26 A2988 RMK AO2 SLP118 T02830261 50004=
KOXB 210353Z AUTO 23004KT 9SM CLR 29/26 A2987 RMK AO2 SLP114 T02890261=
KOXB 210453Z AUTO 24006KT 10SM CLR 29/27 A2986 RMK AO2 SLP112 T02940267
 403720267=
KOXB 210553Z AUTO 25007KT 10SM CLR 30/26 A2986 RMK AO2 SLP111 T03000261 10322
 20267 56007=
KOXB 210653Z AUTO 25007KT 10SM SCT070 29/26 A2986 RMK AO2 SLP111 T02940256=
KOXB 210753Z AUTO 26005KT 10SM CLR 29/26 A2985 RMK AO2 SLP106 T02890256=
KOXB 210853Z AUTO 27006KT 10SM CLR 28/26 A2985 RMK AO2 SLP107 T02830256 55004=
KOXB 210953Z AUTO 24005KT 10SM CLR 28/26 A2983 RMK AO2 SLP101 T02780256=
KOXB 211053Z AUTO 27006KT 10SM CLR 28/25 A2986 RMK AO2 SLP110 T02830250=
KOXB 211153Z AUTO 28007KT 10SM CLR 31/25 A2986 RMK AO2 SLP112 T03060250 10306
 20278 53005=
KOXB 211253Z AUTO 30006KT 10SM CLR 32/26 A2988 RMK AO2 SLP118 T03220256=
KOXB 211353Z AUTO 29007KT 10SM CLR 33/26 A2988 RMK AO2 SLP119 T03330256=
KOXB 211453Z AUTO 29009KT 10SM CLR 35/25 A2989 RMK AO2 SLP120 T03500250 51008=
KOXB 211553Z AUTO 30009KT 10SM CLR 36/24 A2989 RMK AO2 SLP120 T03610244=
KOXB 211653Z AUTO 30006KT 10SM SCT043 36/24 A2988 RMK AO2 SLP118 T03610244=
KOXB 211753Z AUTO 29008KT 10SM FEW046 37/23 A2987 RMK AO2 SLP114 T03720233
 10372 20306 58006=
KOXB 211853Z AUTO 25009G14KT 10SM FEW050 37/23 A2986 RMK AO2 SLP111 T03720228=
KOXB 211953Z AUTO 28009G16KT 10SM CLR 37/22 A2985 RMK AO2 SLP108 T03720222=
KOXB 212053Z AUTO 26006KT 10SM CLR 37/22 A2985 RMK AO2 SLP107 T03670222 56007=
KOXB 212153Z AUTO 26010KT 10SM CLR 36/23 A2984 RMK AO2 SLP104 T03610228=
KOXB 212253Z AUTO 26008KT 10SM CLR 35/23 A2985 RMK AO2 SLP107 T03500233=
KOXB 212353Z AUTO 25006KT 10SM CLR 33/24 A2986 RMK AO2 SLP111 T03280244 10378
 20328 53004=
KOXB 220053Z AUTO 00000KT 10SM CLR 31/24 A2987 RMK AO2 SLP113 T03110244=
KOXB 220153Z AUTO 23007KT 10SM CLR 31/26 A2987 RMK AO2 SLP116 T03060256=
KOXB 220253Z AUTO 23006KT 10SM CLR 31/25 A2987 RMK AO2 SLP116 T03060250 50005=
KOXB 220353Z AUTO 24006KT 10SM CLR 29/24 A2987 RMK AO2 SLP114 T02940244=
KOXB 220453Z AUTO 25006KT 10SM CLR 29/24 A2987 RMK AO2 SLP114 T02890244
 403780278=
KOXB 220553Z AUTO 25006KT 10SM CLR 28/24 A2988 RMK AO2 SLP118 T02830239 10328
 20283 53002=